sensor_id;sensor_type;location;lat;lon;timestamp;temperature;humidity
66057;DHT22;52842;52.666;5.202;2022-12-18T00:01:52;16.70;62.30
66057;DHT22;52842;52.666;5.202;2022-12-18T00:04:20;16.70;62.20
66057;DHT22;52842;52.666;5.202;2022-12-18T00:06:47;16.70;62.30
66057;DHT22;52842;52.666;5.202;2022-12-18T00:09:14;16.60;62.20
66057;DHT22;52842;52.666;5.202;2022-12-18T00:11:41;16.60;62.30
66057;DHT22;52842;52.666;5.202;2022-12-18T00:14:09;16.60;62.30
66057;DHT22;52842;52.666;5.202;2022-12-18T00:16:37;16.50;62.20
66057;DHT22;52842;52.666;5.202;2022-12-18T00:19:05;16.50;62.30
66057;DHT22;52842;52.666;5.202;2022-12-18T00:21:32;16.50;62.20
66057;DHT22;52842;52.666;5.202;2022-12-18T00:23:59;16.50;62.30
66057;DHT22;52842;52.666;5.202;2022-12-18T00:26:27;16.50;62.30
66057;DHT22;52842;52.666;5.202;2022-12-18T00:28:54;16.50;62.20
66057;DHT22;52842;52.666;5.202;2022-12-18T00:31:23;16.50;62.20
66057;DHT22;52842;52.666;5.202;2022-12-18T00:33:50;16.40;62.10
66057;DHT22;52842;52.666;5.202;2022-12-18T00:36:18;16.40;62.10
66057;DHT22;52842;52.666;5.202;2022-12-18T00:38:45;16.40;62.10
66057;DHT22;52842;52.666;5.202;2022-12-18T00:41:12;16.40;62.00
66057;DHT22;52842;52.666;5.202;2022-12-18T00:43:59;16.40;62.00
66057;DHT22;52842;52.666;5.202;2022-12-18T00:46:26;16.40;62.00
66057;DHT22;52842;52.666;5.202;2022-12-18T00:48:53;16.40;62.00
66057;DHT22;52842;52.666;5.202;2022-12-18T00:51:19;16.40;62.00
66057;DHT22;52842;52.666;5.202;2022-12-18T00:53:46;16.40;61.90
66057;DHT22;52842;52.666;5.202;2022-12-18T00:56:13;16.40;61.80
66057;DHT22;52842;52.666;5.202;2022-12-18T00:58:39;16.40;61.60
66057;DHT22;52842;52.666;5.202;2022-12-18T01:01:06;16.50;61.60
66057;DHT22;52842;52.666;5.202;2022-12-18T01:03:34;16.50;61.40
66057;DHT22;52842;52.666;5.202;2022-12-18T01:06:04;16.50;61.20
66057;DHT22;52842;52.666;5.202;2022-12-18T01:08:31;16.60;61.20
66057;DHT22;52842;52.666;5.202;2022-12-18T01:10:58;16.60;61.00
66057;DHT22;52842;52.666;5.202;2022-12-18T01:13:24;16.70;60.90
66057;DHT22;52842;52.666;5.202;2022-12-18T01:15:51;16.70;60.70
66057;DHT22;52842;52.666;5.202;2022-12-18T01:18:18;16.80;60.60
66057;DHT22;52842;52.666;5.202;2022-12-18T01:20:46;16.80;60.40
66057;DHT22;52842;52.666;5.202;2022-12-18T01:23:13;16.80;60.30
66057;DHT22;52842;52.666;5.202;2022-12-18T01:25:39;16.90;60.20
66057;DHT22;52842;52.666;5.202;2022-12-18T01:28:06;16.90;60.10
66057;DHT22;52842;52.666;5.202;2022-12-18T01:30:32;16.90;59.90
66057;DHT22;52842;52.666;5.202;2022-12-18T01:32:59;16.90;59.90
66057;DHT22;52842;52.666;5.202;2022-12-18T01:35:26;16.90;59.70
66057;DHT22;52842;52.666;5.202;2022-12-18T01:37:55;16.90;59.70
66057;DHT22;52842;52.666;5.202;2022-12-18T01:40:22;16.80;59.70
66057;DHT22;52842;52.666;5.202;2022-12-18T01:42:49;16.80;59.60
66057;DHT22;52842;52.666;5.202;2022-12-18T01:45:26;16.80;59.60
66057;DHT22;52842;52.666;5.202;2022-12-18T01:47:54;16.80;59.60
66057;DHT22;52842;52.666;5.202;2022-12-18T01:50:22;16.70;59.50
66057;DHT22;52842;52.666;5.202;2022-12-18T01:52:50;16.70;59.40
66057;DHT22;52842;52.666;5.202;2022-12-18T01:55:20;16.70;59.40
66057;DHT22;52842;52.666;5.202;2022-12-18T01:57:48;16.60;59.40
66057;DHT22;52842;52.666;5.202;2022-12-18T02:00:17;16.60;59.40
66057;DHT22;52842;52.666;5.202;2022-12-18T02:02:44;16.50;59.40
66057;DHT22;52842;52.666;5.202;2022-12-18T02:05:11;16.50;59.40
66057;DHT22;52842;52.666;5.202;2022-12-18T02:07:42;16.50;59.50
66057;DHT22;52842;52.666;5.202;2022-12-18T02:10:11;16.50;59.50
66057;DHT22;52842;52.666;5.202;2022-12-18T02:12:43;16.40;59.50
66057;DHT22;52842;52.666;5.202;2022-12-18T02:15:12;16.40;59.50
66057;DHT22;52842;52.666;5.202;2022-12-18T02:17:41;16.40;59.60
66057;DHT22;52842;52.666;5.202;2022-12-18T02:20:12;16.30;59.60
66057;DHT22;52842;52.666;5.202;2022-12-18T02:22:43;16.30;59.60
66057;DHT22;52842;52.666;5.202;2022-12-18T02:25:13;16.30;60.30
66057;DHT22;52842;52.666;5.202;2022-12-18T02:27:43;16.30;59.70
66057;DHT22;52842;52.666;5.202;2022-12-18T02:30:11;16.20;59.70
66057;DHT22;52842;52.666;5.202;2022-12-18T02:32:40;16.20;59.70
66057;DHT22;52842;52.666;5.202;2022-12-18T02:35:11;16.20;59.70
66057;DHT22;52842;52.666;5.202;2022-12-18T02:37:39;16.20;59.70
66057;DHT22;52842;52.666;5.202;2022-12-18T02:40:06;16.20;59.70
66057;DHT22;52842;52.666;5.202;2022-12-18T02:42:34;16.20;59.60
66057;DHT22;52842;52.666;5.202;2022-12-18T02:45:02;16.20;59.60
66057;DHT22;52842;52.666;5.202;2022-12-18T02:47:29;16.30;59.40
66057;DHT22;52842;52.666;5.202;2022-12-18T02:49:59;16.30;59.40
66057;DHT22;52842;52.666;5.202;2022-12-18T02:52:28;16.40;59.30
66057;DHT22;52842;52.666;5.202;2022-12-18T02:54:57;16.40;59.30
66057;DHT22;52842;52.666;5.202;2022-12-18T02:57:29;16.50;59.20
66057;DHT22;52842;52.666;5.202;2022-12-18T03:00:00;16.50;59.10
66057;DHT22;52842;52.666;5.202;2022-12-18T03:02:32;16.50;59.00
66057;DHT22;52842;52.666;5.202;2022-12-18T03:05:02;16.60;58.90
66057;DHT22;52842;52.666;5.202;2022-12-18T03:07:34;16.60;58.80
66057;DHT22;52842;52.666;5.202;2022-12-18T03:10:01;16.60;58.80
66057;DHT22;52842;52.666;5.202;2022-12-18T03:12:29;16.60;58.60
66057;DHT22;52842;52.666;5.202;2022-12-18T03:14:57;16.60;58.40
66057;DHT22;52842;52.666;5.202;2022-12-18T03:17:26;16.70;58.40
66057;DHT22;52842;52.666;5.202;2022-12-18T03:19:56;16.60;58.40
66057;DHT22;52842;52.666;5.202;2022-12-18T03:22:23;16.60;58.40
66057;DHT22;52842;52.666;5.202;2022-12-18T03:24:50;16.60;58.30
66057;DHT22;52842;52.666;5.202;2022-12-18T03:27:18;16.60;58.30
66057;DHT22;52842;52.666;5.202;2022-12-18T03:29:46;16.50;58.20
66057;DHT22;52842;52.666;5.202;2022-12-18T03:32:15;16.50;58.20
66057;DHT22;52842;52.666;5.202;2022-12-18T03:34:44;16.50;58.10
66057;DHT22;52842;52.666;5.202;2022-12-18T03:37:14;16.50;58.20
66057;DHT22;52842;52.666;5.202;2022-12-18T03:39:41;16.40;58.10
66057;DHT22;52842;52.666;5.202;2022-12-18T03:42:08;16.40;58.10
66057;DHT22;52842;52.666;5.202;2022-12-18T03:44:39;16.30;58.00
66057;DHT22;52842;52.666;5.202;2022-12-18T03:47:07;16.30;58.10
66057;DHT22;52842;52.666;5.202;2022-12-18T03:49:35;16.30;58.10
66057;DHT22;52842;52.666;5.202;2022-12-18T03:52:03;16.30;58.10
66057;DHT22;52842;52.666;5.202;2022-12-18T03:54:32;16.20;58.20
66057;DHT22;52842;52.666;5.202;2022-12-18T03:57:01;16.20;58.20
66057;DHT22;52842;52.666;5.202;2022-12-18T03:59:29;16.20;58.30
66057;DHT22;52842;52.666;5.202;2022-12-18T04:01:56;16.20;58.40
66057;DHT22;52842;52.666;5.202;2022-12-18T04:04:24;16.10;58.40
66057;DHT22;52842;52.666;5.202;2022-12-18T04:06:51;16.10;58.40
66057;DHT22;52842;52.666;5.202;2022-12-18T04:09:19;16.00;58.40
66057;DHT22;52842;52.666;5.202;2022-12-18T04:11:47;16.00;58.50
66057;DHT22;52842;52.666;5.202;2022-12-18T04:14:14;16.00;58.50
66057;DHT22;52842;52.666;5.202;2022-12-18T04:16:41;16.00;58.60
66057;DHT22;52842;52.666;5.202;2022-12-18T04:19:07;16.00;58.60
66057;DHT22;52842;52.666;5.202;2022-12-18T04:21:34;16.00;58.50
66057;DHT22;52842;52.666;5.202;2022-12-18T04:24:01;16.00;58.40
66057;DHT22;52842;52.666;5.202;2022-12-18T04:26:27;16.00;58.40
66057;DHT22;52842;52.666;5.202;2022-12-18T04:28:56;16.00;58.30
66057;DHT22;52842;52.666;5.202;2022-12-18T04:31:22;16.00;58.30
66057;DHT22;52842;52.666;5.202;2022-12-18T04:33:49;16.10;58.30
66057;DHT22;52842;52.666;5.202;2022-12-18T04:36:15;16.10;58.10
66057;DHT22;52842;52.666;5.202;2022-12-18T04:38:42;16.20;58.00
66057;DHT22;52842;52.666;5.202;2022-12-18T04:41:09;16.20;58.00
66057;DHT22;52842;52.666;5.202;2022-12-18T04:43:36;16.30;57.90
66057;DHT22;52842;52.666;5.202;2022-12-18T04:46:04;16.30;57.80
66057;DHT22;52842;52.666;5.202;2022-12-18T04:48:32;16.40;57.70
66057;DHT22;52842;52.666;5.202;2022-12-18T04:50:59;16.40;57.60
66057;DHT22;52842;52.666;5.202;2022-12-18T04:53:25;16.40;57.50
66057;DHT22;52842;52.666;5.202;2022-12-18T04:56:01;16.50;57.50
66057;DHT22;52842;52.666;5.202;2022-12-18T04:58:28;16.50;57.40
66057;DHT22;52842;52.666;5.202;2022-12-18T05:00:55;16.50;57.20
66057;DHT22;52842;52.666;5.202;2022-12-18T05:03:23;16.50;57.10
66057;DHT22;52842;52.666;5.202;2022-12-18T05:05:49;16.50;57.10
66057;DHT22;52842;52.666;5.202;2022-12-18T05:08:16;16.40;57.10
66057;DHT22;52842;52.666;5.202;2022-12-18T05:10:43;16.40;57.10
66057;DHT22;52842;52.666;5.202;2022-12-18T05:13:09;16.40;57.10
66057;DHT22;52842;52.666;5.202;2022-12-18T05:15:36;16.40;57.10
66057;DHT22;52842;52.666;5.202;2022-12-18T05:18:03;16.30;57.00
66057;DHT22;52842;52.666;5.202;2022-12-18T05:20:31;16.30;57.00
66057;DHT22;52842;52.666;5.202;2022-12-18T05:22:58;16.20;57.00
66057;DHT22;52842;52.666;5.202;2022-12-18T05:25:24;16.20;57.00
66057;DHT22;52842;52.666;5.202;2022-12-18T05:27:51;16.20;57.00
66057;DHT22;52842;52.666;5.202;2022-12-18T05:30:17;16.10;57.60
66057;DHT22;52842;52.666;5.202;2022-12-18T05:32:44;16.10;57.00
66057;DHT22;52842;52.666;5.202;2022-12-18T05:35:11;16.00;57.10
66057;DHT22;52842;52.666;5.202;2022-12-18T05:37:39;16.00;57.10
66057;DHT22;52842;52.666;5.202;2022-12-18T05:40:06;16.00;57.10
66057;DHT22;52842;52.666;5.202;2022-12-18T05:42:33;16.00;57.20
66057;DHT22;52842;52.666;5.202;2022-12-18T05:44:59;15.90;57.20
66057;DHT22;52842;52.666;5.202;2022-12-18T05:47:26;15.90;57.30
66057;DHT22;52842;52.666;5.202;2022-12-18T05:49:53;15.90;57.30
66057;DHT22;52842;52.666;5.202;2022-12-18T05:52:19;15.90;57.20
66057;DHT22;52842;52.666;5.202;2022-12-18T05:54:47;15.90;57.20
66057;DHT22;52842;52.666;5.202;2022-12-18T05:57:14;16.00;57.30
66057;DHT22;52842;52.666;5.202;2022-12-18T05:59:41;16.00;57.20
66057;DHT22;52842;52.666;5.202;2022-12-18T06:02:07;16.00;57.10
66057;DHT22;52842;52.666;5.202;2022-12-18T06:04:34;16.10;57.00
66057;DHT22;52842;52.666;5.202;2022-12-18T06:07:01;16.10;56.90
66057;DHT22;52842;52.666;5.202;2022-12-18T06:09:30;16.10;56.80
66057;DHT22;52842;52.666;5.202;2022-12-18T06:11:58;16.20;56.80
66057;DHT22;52842;52.666;5.202;2022-12-18T06:14:25;16.20;56.70
66057;DHT22;52842;52.666;5.202;2022-12-18T06:16:52;16.30;56.70
66057;DHT22;52842;52.666;5.202;2022-12-18T06:19:18;16.30;56.60
66057;DHT22;52842;52.666;5.202;2022-12-18T06:21:45;16.30;56.50
66057;DHT22;52842;52.666;5.202;2022-12-18T06:24:12;16.40;56.40
66057;DHT22;52842;52.666;5.202;2022-12-18T06:26:38;16.40;56.40
66057;DHT22;52842;52.666;5.202;2022-12-18T06:29:06;16.40;56.40
66057;DHT22;52842;52.666;5.202;2022-12-18T06:31:33;16.40;56.30
66057;DHT22;52842;52.666;5.202;2022-12-18T06:34:01;16.30;56.30
66057;DHT22;52842;52.666;5.202;2022-12-18T06:36:28;16.30;56.40
66057;DHT22;52842;52.666;5.202;2022-12-18T06:38:55;16.30;56.40
66057;DHT22;52842;52.666;5.202;2022-12-18T06:41:22;16.30;56.40
66057;DHT22;52842;52.666;5.202;2022-12-18T06:43:49;16.20;56.40
66057;DHT22;52842;52.666;5.202;2022-12-18T06:46:17;16.20;56.40
66057;DHT22;52842;52.666;5.202;2022-12-18T06:48:46;16.10;56.50
66057;DHT22;52842;52.666;5.202;2022-12-18T06:51:15;16.10;56.50
66057;DHT22;52842;52.666;5.202;2022-12-18T06:53:41;16.10;56.70
66057;DHT22;52842;52.666;5.202;2022-12-18T06:56:08;16.10;57.20
66057;DHT22;52842;52.666;5.202;2022-12-18T06:58:34;16.00;57.50
66057;DHT22;52842;52.666;5.202;2022-12-18T07:01:01;16.00;57.70
66057;DHT22;52842;52.666;5.202;2022-12-18T07:03:30;16.00;57.70
66057;DHT22;52842;52.666;5.202;2022-12-18T07:05:57;16.00;57.60
66057;DHT22;52842;52.666;5.202;2022-12-18T07:08:24;15.90;57.70
66057;DHT22;52842;52.666;5.202;2022-12-18T07:10:50;15.90;57.80
66057;DHT22;52842;52.666;5.202;2022-12-18T07:13:18;15.90;58.00
66057;DHT22;52842;52.666;5.202;2022-12-18T07:15:44;15.80;58.00
66057;DHT22;52842;52.666;5.202;2022-12-18T07:18:11;15.80;58.20
66057;DHT22;52842;52.666;5.202;2022-12-18T07:20:39;15.80;58.90
66057;DHT22;52842;52.666;5.202;2022-12-18T07:23:06;15.80;58.40
66057;DHT22;52842;52.666;5.202;2022-12-18T07:25:33;15.90;58.40
66057;DHT22;52842;52.666;5.202;2022-12-18T07:28:00;15.90;58.00
66057;DHT22;52842;52.666;5.202;2022-12-18T07:30:26;16.00;57.70
66057;DHT22;52842;52.666;5.202;2022-12-18T07:32:53;16.10;57.50
66057;DHT22;52842;52.666;5.202;2022-12-18T07:35:19;16.20;57.40
66057;DHT22;52842;52.666;5.202;2022-12-18T07:37:47;16.30;57.30
66057;DHT22;52842;52.666;5.202;2022-12-18T07:40:14;16.30;57.00
66057;DHT22;52842;52.666;5.202;2022-12-18T07:42:41;16.40;56.90
66057;DHT22;52842;52.666;5.202;2022-12-18T07:45:08;16.50;56.50
66057;DHT22;52842;52.666;5.202;2022-12-18T07:47:35;16.70;56.10
66057;DHT22;52842;52.666;5.202;2022-12-18T07:50:02;16.90;55.70
66057;DHT22;52842;52.666;5.202;2022-12-18T07:52:28;17.10;55.20
66057;DHT22;52842;52.666;5.202;2022-12-18T07:54:56;17.20;54.80
66057;DHT22;52842;52.666;5.202;2022-12-18T07:57:23;17.40;54.40
66057;DHT22;52842;52.666;5.202;2022-12-18T07:59:50;17.40;54.00
66057;DHT22;52842;52.666;5.202;2022-12-18T08:02:16;17.50;53.90
66057;DHT22;52842;52.666;5.202;2022-12-18T08:04:43;17.50;53.70
66057;DHT22;52842;52.666;5.202;2022-12-18T08:07:10;17.40;53.60
66057;DHT22;52842;52.666;5.202;2022-12-18T08:09:36;17.40;53.70
66057;DHT22;52842;52.666;5.202;2022-12-18T08:12:05;17.30;53.70
66057;DHT22;52842;52.666;5.202;2022-12-18T08:14:31;17.30;53.70
66057;DHT22;52842;52.666;5.202;2022-12-18T08:16:58;17.20;53.70
66057;DHT22;52842;52.666;5.202;2022-12-18T08:19:25;17.20;53.70
66057;DHT22;52842;52.666;5.202;2022-12-18T08:21:51;17.10;53.60
66057;DHT22;52842;52.666;5.202;2022-12-18T08:24:18;17.10;53.60
66057;DHT22;52842;52.666;5.202;2022-12-18T08:26:45;17.00;53.50
66057;DHT22;52842;52.666;5.202;2022-12-18T08:29:13;17.00;53.40
66057;DHT22;52842;52.666;5.202;2022-12-18T08:31:39;17.00;53.40
66057;DHT22;52842;52.666;5.202;2022-12-18T08:34:07;16.90;53.30
66057;DHT22;52842;52.666;5.202;2022-12-18T08:36:33;16.90;53.30
66057;DHT22;52842;52.666;5.202;2022-12-18T08:39:00;16.90;53.40
66057;DHT22;52842;52.666;5.202;2022-12-18T08:41:27;16.80;53.40
66057;DHT22;52842;52.666;5.202;2022-12-18T08:43:53;16.80;53.40
66057;DHT22;52842;52.666;5.202;2022-12-18T08:46:39;16.70;53.60
66057;DHT22;52842;52.666;5.202;2022-12-18T08:49:07;16.60;53.80
66057;DHT22;52842;52.666;5.202;2022-12-18T08:51:34;16.60;54.00
66057;DHT22;52842;52.666;5.202;2022-12-18T08:54:01;16.50;54.10
66057;DHT22;52842;52.666;5.202;2022-12-18T08:56:28;16.50;54.10
66057;DHT22;52842;52.666;5.202;2022-12-18T08:58:55;16.50;54.40
66057;DHT22;52842;52.666;5.202;2022-12-18T09:01:22;16.50;54.20
66057;DHT22;52842;52.666;5.202;2022-12-18T09:03:50;16.50;54.20
66057;DHT22;52842;52.666;5.202;2022-12-18T09:06:17;16.50;54.10
66057;DHT22;52842;52.666;5.202;2022-12-18T09:08:44;16.60;54.10
66057;DHT22;52842;52.666;5.202;2022-12-18T09:11:12;16.70;53.90
66057;DHT22;52842;52.666;5.202;2022-12-18T09:13:39;16.80;53.70
66057;DHT22;52842;52.666;5.202;2022-12-18T09:16:06;16.90;53.50
66057;DHT22;52842;52.666;5.202;2022-12-18T09:18:32;17.10;53.20
66057;DHT22;52842;52.666;5.202;2022-12-18T09:21:06;17.30;52.90
66057;DHT22;52842;52.666;5.202;2022-12-18T09:23:33;17.70;52.00
66057;DHT22;52842;52.666;5.202;2022-12-18T09:26:00;18.60;50.60
66057;DHT22;52842;52.666;5.202;2022-12-18T09:28:26;19.50;48.80
66057;DHT22;52842;52.666;5.202;2022-12-18T09:30:53;20.30;47.00
66057;DHT22;52842;52.666;5.202;2022-12-18T09:33:20;20.80;45.60
66057;DHT22;52842;52.666;5.202;2022-12-18T09:35:47;21.10;44.40
66057;DHT22;52842;52.666;5.202;2022-12-18T09:38:15;21.30;43.80
66057;DHT22;52842;52.666;5.202;2022-12-18T09:40:43;21.30;42.80
66057;DHT22;52842;52.666;5.202;2022-12-18T09:43:13;21.10;42.70
66057;DHT22;52842;52.666;5.202;2022-12-18T09:45:42;20.90;43.10
66057;DHT22;52842;52.666;5.202;2022-12-18T09:48:10;20.50;43.50
66057;DHT22;52842;52.666;5.202;2022-12-18T09:50:42;20.20;43.90
66057;DHT22;52842;52.666;5.202;2022-12-18T09:53:13;19.90;44.40
66057;DHT22;52842;52.666;5.202;2022-12-18T09:55:44;19.60;45.10
66057;DHT22;52842;52.666;5.202;2022-12-18T09:58:13;19.30;45.60
66057;DHT22;52842;52.666;5.202;2022-12-18T10:00:40;19.10;46.40
66057;DHT22;52842;52.666;5.202;2022-12-18T10:03:08;18.80;47.10
66057;DHT22;52842;52.666;5.202;2022-12-18T10:05:37;18.50;47.80
66057;DHT22;52842;52.666;5.202;2022-12-18T10:08:08;18.20;48.40
66057;DHT22;52842;52.666;5.202;2022-12-18T10:10:38;18.00;49.10
66057;DHT22;52842;52.666;5.202;2022-12-18T10:13:09;17.80;50.10
66057;DHT22;52842;52.666;5.202;2022-12-18T10:15:40;17.60;50.10
66057;DHT22;52842;52.666;5.202;2022-12-18T10:18:13;17.50;50.70
66057;DHT22;52842;52.666;5.202;2022-12-18T10:20:43;17.40;51.10
66057;DHT22;52842;52.666;5.202;2022-12-18T10:23:12;17.20;51.50
66057;DHT22;52842;52.666;5.202;2022-12-18T10:25:45;17.10;51.90
66057;DHT22;52842;52.666;5.202;2022-12-18T10:28:15;17.00;52.30
66057;DHT22;52842;52.666;5.202;2022-12-18T10:30:43;16.90;52.70
66057;DHT22;52842;52.666;5.202;2022-12-18T10:33:10;16.80;52.90
66057;DHT22;52842;52.666;5.202;2022-12-18T10:35:37;16.70;53.10
66057;DHT22;52842;52.666;5.202;2022-12-18T10:38:07;16.70;53.40
66057;DHT22;52842;52.666;5.202;2022-12-18T10:40:50;16.60;53.60
66057;DHT22;52842;52.666;5.202;2022-12-18T10:43:21;16.60;53.80
66057;DHT22;52842;52.666;5.202;2022-12-18T10:45:58;16.80;53.60
66057;DHT22;52842;52.666;5.202;2022-12-18T10:48:25;17.00;53.40
66057;DHT22;52842;52.666;5.202;2022-12-18T10:50:52;17.00;53.20
66057;DHT22;52842;52.666;5.202;2022-12-18T10:53:20;17.00;53.20
66057;DHT22;52842;52.666;5.202;2022-12-18T10:55:48;17.00;53.30
66057;DHT22;52842;52.666;5.202;2022-12-18T10:58:16;17.00;53.20
66057;DHT22;52842;52.666;5.202;2022-12-18T11:00:47;17.00;53.40
66057;DHT22;52842;52.666;5.202;2022-12-18T11:03:29;17.00;53.70
66057;DHT22;52842;52.666;5.202;2022-12-18T11:06:01;17.00;53.90
66057;DHT22;52842;52.666;5.202;2022-12-18T11:08:28;17.00;54.20
66057;DHT22;52842;52.666;5.202;2022-12-18T11:10:54;17.00;54.30
66057;DHT22;52842;52.666;5.202;2022-12-18T11:13:22;16.90;54.50
66057;DHT22;52842;52.666;5.202;2022-12-18T11:15:51;16.90;54.70
66057;DHT22;52842;52.666;5.202;2022-12-18T11:18:18;16.90;54.80
66057;DHT22;52842;52.666;5.202;2022-12-18T11:20:50;16.90;55.00
66057;DHT22;52842;52.666;5.202;2022-12-18T11:23:17;16.90;55.10
66057;DHT22;52842;52.666;5.202;2022-12-18T11:25:50;17.00;55.20
66057;DHT22;52842;52.666;5.202;2022-12-18T11:28:25;17.00;55.20
66057;DHT22;52842;52.666;5.202;2022-12-18T11:31:02;17.00;55.00
66057;DHT22;52842;52.666;5.202;2022-12-18T11:33:35;17.00;55.00
66057;DHT22;52842;52.666;5.202;2022-12-18T11:36:04;17.10;55.00
66057;DHT22;52842;52.666;5.202;2022-12-18T11:38:34;17.10;54.80
66057;DHT22;52842;52.666;5.202;2022-12-18T11:41:03;17.20;54.90
66057;DHT22;52842;52.666;5.202;2022-12-18T11:43:31;17.20;54.70
66057;DHT22;52842;52.666;5.202;2022-12-18T11:46:02;17.20;54.60
66057;DHT22;52842;52.666;5.202;2022-12-18T11:48:32;17.20;54.50
66057;DHT22;52842;52.666;5.202;2022-12-18T11:51:00;17.20;54.50
66057;DHT22;52842;52.666;5.202;2022-12-18T11:53:27;17.20;54.50
66057;DHT22;52842;52.666;5.202;2022-12-18T11:55:58;17.20;54.50
66057;DHT22;52842;52.666;5.202;2022-12-18T11:58:29;17.10;54.40
66057;DHT22;52842;52.666;5.202;2022-12-18T12:01:01;17.10;54.40
66057;DHT22;52842;52.666;5.202;2022-12-18T12:03:38;17.00;54.50
66057;DHT22;52842;52.666;5.202;2022-12-18T12:06:08;16.90;54.80
66057;DHT22;52842;52.666;5.202;2022-12-18T12:08:43;16.80;55.30
66057;DHT22;52842;52.666;5.202;2022-12-18T12:11:13;16.80;55.80
66057;DHT22;52842;52.666;5.202;2022-12-18T12:13:47;16.70;56.10
66057;DHT22;52842;52.666;5.202;2022-12-18T12:16:17;16.60;56.30
66057;DHT22;52842;52.666;5.202;2022-12-18T12:18:49;16.60;56.60
66057;DHT22;52842;52.666;5.202;2022-12-18T12:21:20;16.50;56.80
66057;DHT22;52842;52.666;5.202;2022-12-18T12:23:51;16.50;57.00
66057;DHT22;52842;52.666;5.202;2022-12-18T12:26:21;16.40;57.10
66057;DHT22;52842;52.666;5.202;2022-12-18T12:28:57;16.30;57.30
66057;DHT22;52842;52.666;5.202;2022-12-18T12:31:29;16.30;57.60
66057;DHT22;52842;52.666;5.202;2022-12-18T12:34:01;16.30;57.80
66057;DHT22;52842;52.666;5.202;2022-12-18T12:36:33;16.20;58.00
66057;DHT22;52842;52.666;5.202;2022-12-18T12:39:05;16.20;58.30
66057;DHT22;52842;52.666;5.202;2022-12-18T12:41:33;16.10;58.50
66057;DHT22;52842;52.666;5.202;2022-12-18T12:44:19;16.10;58.70
66057;DHT22;52842;52.666;5.202;2022-12-18T12:46:48;16.10;59.00
66057;DHT22;52842;52.666;5.202;2022-12-18T12:49:17;16.00;59.30
66057;DHT22;52842;52.666;5.202;2022-12-18T12:51:45;16.00;59.70
66057;DHT22;52842;52.666;5.202;2022-12-18T12:54:14;16.00;60.00
66057;DHT22;52842;52.666;5.202;2022-12-18T12:56:43;16.00;60.30
66057;DHT22;52842;52.666;5.202;2022-12-18T12:59:13;16.00;60.70
66057;DHT22;52842;52.666;5.202;2022-12-18T13:01:47;16.00;61.10
66057;DHT22;52842;52.666;5.202;2022-12-18T13:04:20;16.00;61.50
66057;DHT22;52842;52.666;5.202;2022-12-18T13:06:50;15.90;61.80
66057;DHT22;52842;52.666;5.202;2022-12-18T13:09:19;15.90;62.10
66057;DHT22;52842;52.666;5.202;2022-12-18T13:11:46;15.90;62.50
66057;DHT22;52842;52.666;5.202;2022-12-18T13:14:45;15.90;62.70
66057;DHT22;52842;52.666;5.202;2022-12-18T13:17:16;15.90;63.00
66057;DHT22;52842;52.666;5.202;2022-12-18T13:19:47;15.90;63.10
66057;DHT22;52842;52.666;5.202;2022-12-18T13:22:21;15.90;63.40
66057;DHT22;52842;52.666;5.202;2022-12-18T13:24:48;15.90;63.50
66057;DHT22;52842;52.666;5.202;2022-12-18T13:30:19;15.80;63.80
66057;DHT22;52842;52.666;5.202;2022-12-18T13:36:02;15.80;64.20
66057;DHT22;52842;52.666;5.202;2022-12-18T13:38:33;15.80;64.50
66057;DHT22;52842;52.666;5.202;2022-12-18T13:41:00;15.80;64.70
66057;DHT22;52842;52.666;5.202;2022-12-18T13:43:31;15.70;64.90
66057;DHT22;52842;52.666;5.202;2022-12-18T13:46:00;15.80;65.10
66057;DHT22;52842;52.666;5.202;2022-12-18T13:48:27;15.80;65.30
66057;DHT22;52842;52.666;5.202;2022-12-18T13:50:57;15.70;65.50
66057;DHT22;52842;52.666;5.202;2022-12-18T13:53:26;15.80;65.60
66057;DHT22;52842;52.666;5.202;2022-12-18T13:55:54;15.70;65.70
66057;DHT22;52842;52.666;5.202;2022-12-18T13:58:20;15.80;65.90
66057;DHT22;52842;52.666;5.202;2022-12-18T14:00:47;15.70;66.00
66057;DHT22;52842;52.666;5.202;2022-12-18T14:03:18;15.80;66.40
66057;DHT22;52842;52.666;5.202;2022-12-18T14:05:45;15.80;66.70
66057;DHT22;52842;52.666;5.202;2022-12-18T14:08:12;15.80;66.90
66057;DHT22;52842;52.666;5.202;2022-12-18T14:10:42;15.80;67.20
66057;DHT22;52842;52.666;5.202;2022-12-18T14:13:10;15.90;67.20
66057;DHT22;52842;52.666;5.202;2022-12-18T14:15:39;15.90;67.40
66057;DHT22;52842;52.666;5.202;2022-12-18T14:18:12;15.90;67.30
66057;DHT22;52842;52.666;5.202;2022-12-18T14:20:44;16.00;67.50
66057;DHT22;52842;52.666;5.202;2022-12-18T14:23:24;16.00;67.50
66057;DHT22;52842;52.666;5.202;2022-12-18T14:25:53;16.10;67.40
66057;DHT22;52842;52.666;5.202;2022-12-18T14:28:19;16.10;67.30
66057;DHT22;52842;52.666;5.202;2022-12-18T14:30:47;16.20;66.90
66057;DHT22;52842;52.666;5.202;2022-12-18T14:33:14;16.30;66.70
66057;DHT22;52842;52.666;5.202;2022-12-18T14:35:42;16.30;66.50
66057;DHT22;52842;52.666;5.202;2022-12-18T14:38:10;16.40;66.40
66057;DHT22;52842;52.666;5.202;2022-12-18T14:40:36;16.50;66.60
66057;DHT22;52842;52.666;5.202;2022-12-18T14:43:04;16.50;66.20
66057;DHT22;52842;52.666;5.202;2022-12-18T14:45:35;16.60;66.60
66057;DHT22;52842;52.666;5.202;2022-12-18T14:48:05;16.70;66.70
66057;DHT22;52842;52.666;5.202;2022-12-18T14:50:32;16.80;66.80
66057;DHT22;52842;52.666;5.202;2022-12-18T14:52:58;16.90;66.50
66057;DHT22;52842;52.666;5.202;2022-12-18T14:55:25;16.90;66.10
66057;DHT22;52842;52.666;5.202;2022-12-18T14:57:52;17.00;66.20
66057;DHT22;52842;52.666;5.202;2022-12-18T15:00:22;17.00;66.00
66057;DHT22;52842;52.666;5.202;2022-12-18T15:02:49;17.00;66.00
66057;DHT22;52842;52.666;5.202;2022-12-18T15:05:18;17.10;66.00
66057;DHT22;52842;52.666;5.202;2022-12-18T15:07:45;17.10;66.10
66057;DHT22;52842;52.666;5.202;2022-12-18T15:10:13;17.10;66.10
66057;DHT22;52842;52.666;5.202;2022-12-18T15:12:41;17.10;66.30
66057;DHT22;52842;52.666;5.202;2022-12-18T15:17:57;17.10;66.60
66057;DHT22;52842;52.666;5.202;2022-12-18T15:20:24;17.00;66.80
66057;DHT22;52842;52.666;5.202;2022-12-18T15:22:50;17.10;67.00
66057;DHT22;52842;52.666;5.202;2022-12-18T15:25:23;17.00;67.10
66057;DHT22;52842;52.666;5.202;2022-12-18T15:27:52;17.00;67.10
66057;DHT22;52842;52.666;5.202;2022-12-18T15:30:20;17.00;67.10
66057;DHT22;52842;52.666;5.202;2022-12-18T15:32:47;17.00;66.90
66057;DHT22;52842;52.666;5.202;2022-12-18T15:35:16;17.00;66.70
66057;DHT22;52842;52.666;5.202;2022-12-18T15:37:43;17.00;66.40
66057;DHT22;52842;52.666;5.202;2022-12-18T15:40:14;17.00;66.20
66057;DHT22;52842;52.666;5.202;2022-12-18T15:42:41;17.00;66.00
66057;DHT22;52842;52.666;5.202;2022-12-18T15:45:26;17.00;65.80
66057;DHT22;52842;52.666;5.202;2022-12-18T15:47:53;17.00;65.70